sensor_id;sensor_type;location;lat;lon;timestamp;temperature;humidity
36990;DHT22;22898;52.102;5.776;2023-03-08T00:00:06;8.00;97.40
36990;DHT22;22898;52.102;5.776;2023-03-08T00:02:34;8.00;97.30
36990;DHT22;22898;52.102;5.776;2023-03-08T00:05:00;7.90;97.20
36990;DHT22;22898;52.102;5.776;2023-03-08T00:07:26;7.90;97.40
36990;DHT22;22898;52.102;5.776;2023-03-08T00:09:52;7.80;97.30
36990;DHT22;22898;52.102;5.776;2023-03-08T00:12:17;7.90;97.20
36990;DHT22;22898;52.102;5.776;2023-03-08T00:14:47;8.00;96.60
36990;DHT22;22898;52.102;5.776;2023-03-08T00:17:15;8.00;96.40
36990;DHT22;22898;52.102;5.776;2023-03-08T00:19:41;7.90;96.20
36990;DHT22;22898;52.102;5.776;2023-03-08T00:22:07;7.80;96.40
36990;DHT22;22898;52.102;5.776;2023-03-08T00:24:32;7.60;96.90
36990;DHT22;22898;52.102;5.776;2023-03-08T00:26:58;7.60;97.20
36990;DHT22;22898;52.102;5.776;2023-03-08T00:29:25;7.50;97.00
36990;DHT22;22898;52.102;5.776;2023-03-08T00:31:51;7.50;97.20
36990;DHT22;22898;52.102;5.776;2023-03-08T00:34:18;7.50;97.00
36990;DHT22;22898;52.102;5.776;2023-03-08T00:36:46;7.50;97.10
36990;DHT22;22898;52.102;5.776;2023-03-08T00:39:12;7.50;97.10
36990;DHT22;22898;52.102;5.776;2023-03-08T00:41:40;7.50;97.30
36990;DHT22;22898;52.102;5.776;2023-03-08T00:44:05;7.50;97.20
36990;DHT22;22898;52.102;5.776;2023-03-08T00:46:31;7.50;97.10
36990;DHT22;22898;52.102;5.776;2023-03-08T00:48:56;7.50;97.00
36990;DHT22;22898;52.102;5.776;2023-03-08T00:51:24;7.50;97.10
36990;DHT22;22898;52.102;5.776;2023-03-08T00:53:54;7.60;96.80
36990;DHT22;22898;52.102;5.776;2023-03-08T00:56:20;7.60;96.90
36990;DHT22;22898;52.102;5.776;2023-03-08T00:58:46;7.50;96.90
36990;DHT22;22898;52.102;5.776;2023-03-08T01:01:15;7.50;96.90
36990;DHT22;22898;52.102;5.776;2023-03-08T01:03:41;7.50;96.90
36990;DHT22;22898;52.102;5.776;2023-03-08T01:06:10;7.50;96.90
36990;DHT22;22898;52.102;5.776;2023-03-08T01:08:38;7.40;96.90
36990;DHT22;22898;52.102;5.776;2023-03-08T01:11:06;7.50;96.80
36990;DHT22;22898;52.102;5.776;2023-03-08T01:13:33;7.40;97.20
36990;DHT22;22898;52.102;5.776;2023-03-08T01:16:01;7.40;96.60
36990;DHT22;22898;52.102;5.776;2023-03-08T01:18:27;7.30;97.10
36990;DHT22;22898;52.102;5.776;2023-03-08T01:21:01;7.30;97.00
36990;DHT22;22898;52.102;5.776;2023-03-08T01:23:28;7.30;97.00
36990;DHT22;22898;52.102;5.776;2023-03-08T01:26:03;7.40;96.90
36990;DHT22;22898;52.102;5.776;2023-03-08T01:28:29;7.40;96.90
36990;DHT22;22898;52.102;5.776;2023-03-08T01:33:52;7.30;96.70
36990;DHT22;22898;52.102;5.776;2023-03-08T01:36:20;7.20;96.80
36990;DHT22;22898;52.102;5.776;2023-03-08T01:38:46;7.20;96.90
36990;DHT22;22898;52.102;5.776;2023-03-08T01:41:19;7.30;96.80
36990;DHT22;22898;52.102;5.776;2023-03-08T01:43:46;7.20;96.80
36990;DHT22;22898;52.102;5.776;2023-03-08T01:49:12;7.20;96.90
36990;DHT22;22898;52.102;5.776;2023-03-08T01:51:52;7.20;97.00
36990;DHT22;22898;52.102;5.776;2023-03-08T01:54:25;7.20;96.90
36990;DHT22;22898;52.102;5.776;2023-03-08T01:56:54;7.20;97.00
36990;DHT22;22898;52.102;5.776;2023-03-08T01:59:23;7.30;96.80
36990;DHT22;22898;52.102;5.776;2023-03-08T02:01:51;7.30;96.40
36990;DHT22;22898;52.102;5.776;2023-03-08T02:04:17;7.30;96.20
36990;DHT22;22898;52.102;5.776;2023-03-08T02:06:43;7.10;96.70
36990;DHT22;22898;52.102;5.776;2023-03-08T02:09:09;7.00;96.80
36990;DHT22;22898;52.102;5.776;2023-03-08T02:11:37;7.10;96.60
36990;DHT22;22898;52.102;5.776;2023-03-08T02:14:04;7.10;96.50
36990;DHT22;22898;52.102;5.776;2023-03-08T02:16:30;7.20;96.10
36990;DHT22;22898;52.102;5.776;2023-03-08T02:18:59;7.30;96.00
36990;DHT22;22898;52.102;5.776;2023-03-08T02:21:26;7.20;96.10
36990;DHT22;22898;52.102;5.776;2023-03-08T02:23:54;7.10;96.40
36990;DHT22;22898;52.102;5.776;2023-03-08T02:26:22;7.10;96.50
36990;DHT22;22898;52.102;5.776;2023-03-08T02:28:49;7.20;96.50
36990;DHT22;22898;52.102;5.776;2023-03-08T02:31:14;7.30;96.10
36990;DHT22;22898;52.102;5.776;2023-03-08T02:33:40;7.30;95.90
36990;DHT22;22898;52.102;5.776;2023-03-08T02:36:07;7.20;96.20
36990;DHT22;22898;52.102;5.776;2023-03-08T02:38:34;7.10;96.40
36990;DHT22;22898;52.102;5.776;2023-03-08T02:40:59;7.10;96.40
36990;DHT22;22898;52.102;5.776;2023-03-08T02:43:25;7.20;96.40
36990;DHT22;22898;52.102;5.776;2023-03-08T02:45:51;7.20;96.60
36990;DHT22;22898;52.102;5.776;2023-03-08T02:48:18;7.30;96.30
36990;DHT22;22898;52.102;5.776;2023-03-08T02:50:44;7.40;96.30
36990;DHT22;22898;52.102;5.776;2023-03-08T02:53:10;7.40;96.40
36990;DHT22;22898;52.102;5.776;2023-03-08T02:55:36;7.40;96.40
36990;DHT22;22898;52.102;5.776;2023-03-08T02:58:04;7.40;96.80
36990;DHT22;22898;52.102;5.776;2023-03-08T03:00:30;7.40;96.90
36990;DHT22;22898;52.102;5.776;2023-03-08T03:02:56;7.40;97.00
36990;DHT22;22898;52.102;5.776;2023-03-08T03:05:25;7.50;96.90
36990;DHT22;22898;52.102;5.776;2023-03-08T03:07:52;7.40;97.40
36990;DHT22;22898;52.102;5.776;2023-03-08T03:10:19;7.40;97.50
36990;DHT22;22898;52.102;5.776;2023-03-08T03:12:47;7.40;97.70
36990;DHT22;22898;52.102;5.776;2023-03-08T03:15:13;7.30;97.70
36990;DHT22;22898;52.102;5.776;2023-03-08T03:17:39;7.40;97.70
36990;DHT22;22898;52.102;5.776;2023-03-08T03:20:08;7.50;97.60
36990;DHT22;22898;52.102;5.776;2023-03-08T03:22:34;7.40;97.60
36990;DHT22;22898;52.102;5.776;2023-03-08T03:24:59;7.50;97.90
36990;DHT22;22898;52.102;5.776;2023-03-08T03:27:35;7.60;97.70
36990;DHT22;22898;52.102;5.776;2023-03-08T03:30:01;7.60;97.50
36990;DHT22;22898;52.102;5.776;2023-03-08T03:32:27;7.50;98.00
36990;DHT22;22898;52.102;5.776;2023-03-08T03:34:53;7.70;97.90
36990;DHT22;22898;52.102;5.776;2023-03-08T03:37:18;7.70;97.70
36990;DHT22;22898;52.102;5.776;2023-03-08T03:39:44;7.70;97.90
36990;DHT22;22898;52.102;5.776;2023-03-08T03:42:10;7.70;97.90
36990;DHT22;22898;52.102;5.776;2023-03-08T03:44:36;7.70;97.80
36990;DHT22;22898;52.102;5.776;2023-03-08T03:47:02;7.80;98.00
36990;DHT22;22898;52.102;5.776;2023-03-08T03:49:30;7.80;97.80
36990;DHT22;22898;52.102;5.776;2023-03-08T03:51:55;7.80;97.90
36990;DHT22;22898;52.102;5.776;2023-03-08T03:54:22;7.90;98.10
36990;DHT22;22898;52.102;5.776;2023-03-08T03:56:48;7.90;98.00
36990;DHT22;22898;52.102;5.776;2023-03-08T03:59:14;7.80;98.60
36990;DHT22;22898;52.102;5.776;2023-03-08T04:01:41;7.90;98.10
36990;DHT22;22898;52.102;5.776;2023-03-08T04:04:09;7.80;98.40
36990;DHT22;22898;52.102;5.776;2023-03-08T04:06:35;7.70;98.50
36990;DHT22;22898;52.102;5.776;2023-03-08T04:09:07;7.70;98.40
36990;DHT22;22898;52.102;5.776;2023-03-08T04:11:37;7.70;98.70
36990;DHT22;22898;52.102;5.776;2023-03-08T04:14:05;7.80;98.60
36990;DHT22;22898;52.102;5.776;2023-03-08T04:16:34;7.80;98.70
36990;DHT22;22898;52.102;5.776;2023-03-08T04:19:03;7.90;98.60
36990;DHT22;22898;52.102;5.776;2023-03-08T04:21:30;8.00;98.40
36990;DHT22;22898;52.102;5.776;2023-03-08T04:23:55;8.10;98.30
36990;DHT22;22898;52.102;5.776;2023-03-08T04:26:22;8.00;98.20
36990;DHT22;22898;52.102;5.776;2023-03-08T04:28:48;8.00;98.30
36990;DHT22;22898;52.102;5.776;2023-03-08T04:31:17;8.00;98.30
36990;DHT22;22898;52.102;5.776;2023-03-08T04:33:45;7.90;98.60
36990;DHT22;22898;52.102;5.776;2023-03-08T04:36:10;8.00;98.60
36990;DHT22;22898;52.102;5.776;2023-03-08T04:38:38;8.00;98.40
36990;DHT22;22898;52.102;5.776;2023-03-08T04:41:04;7.90;98.70
36990;DHT22;22898;52.102;5.776;2023-03-08T04:43:46;8.00;98.60
36990;DHT22;22898;52.102;5.776;2023-03-08T04:46:14;7.90;98.90
36990;DHT22;22898;52.102;5.776;2023-03-08T04:48:41;7.80;99.00
36990;DHT22;22898;52.102;5.776;2023-03-08T04:51:08;7.60;99.10
36990;DHT22;22898;52.102;5.776;2023-03-08T04:53:35;7.40;99.90
36990;DHT22;22898;52.102;5.776;2023-03-08T04:56:05;7.50;99.90
36990;DHT22;22898;52.102;5.776;2023-03-08T04:58:30;7.70;99.60
36990;DHT22;22898;52.102;5.776;2023-03-08T05:01:06;7.90;99.40
36990;DHT22;22898;52.102;5.776;2023-03-08T05:03:32;7.90;98.90
36990;DHT22;22898;52.102;5.776;2023-03-08T05:05:57;7.80;99.50
36990;DHT22;22898;52.102;5.776;2023-03-08T05:08:23;7.80;99.10
36990;DHT22;22898;52.102;5.776;2023-03-08T05:10:55;7.70;99.40
36990;DHT22;22898;52.102;5.776;2023-03-08T05:13:24;7.70;99.80
36990;DHT22;22898;52.102;5.776;2023-03-08T05:15:51;7.50;99.80
36990;DHT22;22898;52.102;5.776;2023-03-08T05:18:16;7.50;99.70
36990;DHT22;22898;52.102;5.776;2023-03-08T05:20:42;7.70;99.50
36990;DHT22;22898;52.102;5.776;2023-03-08T05:23:09;8.00;98.80
36990;DHT22;22898;52.102;5.776;2023-03-08T05:25:40;7.50;99.70
36990;DHT22;22898;52.102;5.776;2023-03-08T05:28:06;7.40;99.90
36990;DHT22;22898;52.102;5.776;2023-03-08T05:30:33;7.50;99.80
36990;DHT22;22898;52.102;5.776;2023-03-08T05:32:58;7.60;99.90
36990;DHT22;22898;52.102;5.776;2023-03-08T05:35:25;7.60;99.90
36990;DHT22;22898;52.102;5.776;2023-03-08T05:37:50;7.70;99.90
36990;DHT22;22898;52.102;5.776;2023-03-08T05:40:16;7.60;99.50
36990;DHT22;22898;52.102;5.776;2023-03-08T05:42:42;7.50;99.60
36990;DHT22;22898;52.102;5.776;2023-03-08T05:45:08;7.40;99.90
36990;DHT22;22898;52.102;5.776;2023-03-08T05:47:39;7.60;99.80
36990;DHT22;22898;52.102;5.776;2023-03-08T05:50:04;7.60;99.50
36990;DHT22;22898;52.102;5.776;2023-03-08T05:52:31;7.70;99.50
36990;DHT22;22898;52.102;5.776;2023-03-08T05:54:57;7.50;99.80
36990;DHT22;22898;52.102;5.776;2023-03-08T05:57:22;7.70;99.60
36990;DHT22;22898;52.102;5.776;2023-03-08T05:59:48;7.70;99.70
36990;DHT22;22898;52.102;5.776;2023-03-08T06:02:17;7.70;99.10
36990;DHT22;22898;52.102;5.776;2023-03-08T06:04:42;7.60;99.40
36990;DHT22;22898;52.102;5.776;2023-03-08T06:07:08;7.70;99.10
36990;DHT22;22898;52.102;5.776;2023-03-08T06:09:33;7.80;99.10
36990;DHT22;22898;52.102;5.776;2023-03-08T06:12:00;7.70;99.20
36990;DHT22;22898;52.102;5.776;2023-03-08T06:14:26;7.80;99.40
36990;DHT22;22898;52.102;5.776;2023-03-08T06:16:54;7.40;99.90
36990;DHT22;22898;52.102;5.776;2023-03-08T06:19:19;7.20;99.90
36990;DHT22;22898;52.102;5.776;2023-03-08T06:21:45;7.10;99.90
36990;DHT22;22898;52.102;5.776;2023-03-08T06:24:10;7.20;99.90
36990;DHT22;22898;52.102;5.776;2023-03-08T06:26:37;7.10;99.90
36990;DHT22;22898;52.102;5.776;2023-03-08T06:29:05;7.20;99.90
36990;DHT22;22898;52.102;5.776;2023-03-08T06:31:31;7.40;99.90
36990;DHT22;22898;52.102;5.776;2023-03-08T06:33:57;7.50;99.90
36990;DHT22;22898;52.102;5.776;2023-03-08T06:36:22;7.50;99.90
36990;DHT22;22898;52.102;5.776;2023-03-08T06:38:50;7.20;99.90
36990;DHT22;22898;52.102;5.776;2023-03-08T06:41:18;7.20;99.90
36990;DHT22;22898;52.102;5.776;2023-03-08T06:43:44;7.20;99.90
36990;DHT22;22898;52.102;5.776;2023-03-08T06:46:15;7.40;99.90
36990;DHT22;22898;52.102;5.776;2023-03-08T06:48:43;7.30;99.90
36990;DHT22;22898;52.102;5.776;2023-03-08T06:51:09;7.40;99.90
36990;DHT22;22898;52.102;5.776;2023-03-08T06:53:35;7.50;99.90
36990;DHT22;22898;52.102;5.776;2023-03-08T06:56:05;7.60;99.90
36990;DHT22;22898;52.102;5.776;2023-03-08T06:58:32;7.60;99.90
36990;DHT22;22898;52.102;5.776;2023-03-08T07:00:59;7.70;99.50
36990;DHT22;22898;52.102;5.776;2023-03-08T07:03:25;7.60;99.80
36990;DHT22;22898;52.102;5.776;2023-03-08T07:05:52;7.60;99.90
36990;DHT22;22898;52.102;5.776;2023-03-08T07:08:17;7.50;99.90
36990;DHT22;22898;52.102;5.776;2023-03-08T07:10:43;7.40;99.90
36990;DHT22;22898;52.102;5.776;2023-03-08T07:13:08;7.30;99.90
36990;DHT22;22898;52.102;5.776;2023-03-08T07:15:38;7.30;99.90
36990;DHT22;22898;52.102;5.776;2023-03-08T07:18:04;7.40;99.90
36990;DHT22;22898;52.102;5.776;2023-03-08T07:20:31;7.70;99.90
36990;DHT22;22898;52.102;5.776;2023-03-08T07:22:57;7.80;99.70
36990;DHT22;22898;52.102;5.776;2023-03-08T07:25:26;7.90;99.50
36990;DHT22;22898;52.102;5.776;2023-03-08T07:27:52;8.00;99.20
36990;DHT22;22898;52.102;5.776;2023-03-08T07:30:18;8.00;99.20
36990;DHT22;22898;52.102;5.776;2023-03-08T07:32:46;7.70;99.50
36990;DHT22;22898;52.102;5.776;2023-03-08T07:35:13;7.50;99.90
36990;DHT22;22898;52.102;5.776;2023-03-08T07:37:44;7.60;99.90
36990;DHT22;22898;52.102;5.776;2023-03-08T07:40:12;7.70;99.90
36990;DHT22;22898;52.102;5.776;2023-03-08T07:42:38;7.60;99.90
36990;DHT22;22898;52.102;5.776;2023-03-08T07:45:03;7.50;99.90
36990;DHT22;22898;52.102;5.776;2023-03-08T07:47:30;7.50;99.90
36990;DHT22;22898;52.102;5.776;2023-03-08T07:49:55;7.60;99.90
36990;DHT22;22898;52.102;5.776;2023-03-08T07:52:29;7.70;99.90
36990;DHT22;22898;52.102;5.776;2023-03-08T07:54:57;7.40;99.90
36990;DHT22;22898;52.102;5.776;2023-03-08T07:57:23;7.40;99.90
36990;DHT22;22898;52.102;5.776;2023-03-08T07:59:50;7.70;99.90
36990;DHT22;22898;52.102;5.776;2023-03-08T08:02:16;8.00;99.90
36990;DHT22;22898;52.102;5.776;2023-03-08T08:04:42;7.80;99.90
36990;DHT22;22898;52.102;5.776;2023-03-08T08:07:12;7.40;99.90
36990;DHT22;22898;52.102;5.776;2023-03-08T08:09:41;7.50;99.90
36990;DHT22;22898;52.102;5.776;2023-03-08T08:12:08;7.50;99.90
36990;DHT22;22898;52.102;5.776;2023-03-08T08:14:34;7.60;99.90
36990;DHT22;22898;52.102;5.776;2023-03-08T08:17:00;7.60;99.90
36990;DHT22;22898;52.102;5.776;2023-03-08T08:19:26;7.50;99.90
36990;DHT22;22898;52.102;5.776;2023-03-08T08:21:51;7.70;99.90
36990;DHT22;22898;52.102;5.776;2023-03-08T08:24:17;7.60;99.90
36990;DHT22;22898;52.102;5.776;2023-03-08T08:26:43;7.50;99.90
36990;DHT22;22898;52.102;5.776;2023-03-08T08:29:08;7.70;99.90
36990;DHT22;22898;52.102;5.776;2023-03-08T08:31:34;7.70;99.90
36990;DHT22;22898;52.102;5.776;2023-03-08T08:34:00;7.70;99.90
36990;DHT22;22898;52.102;5.776;2023-03-08T08:36:28;7.90;99.90
36990;DHT22;22898;52.102;5.776;2023-03-08T08:38:54;8.10;99.90
36990;DHT22;22898;52.102;5.776;2023-03-08T08:41:21;8.00;99.90
36990;DHT22;22898;52.102;5.776;2023-03-08T08:43:47;8.10;99.90
36990;DHT22;22898;52.102;5.776;2023-03-08T08:46:14;8.40;99.90
36990;DHT22;22898;52.102;5.776;2023-03-08T08:48:41;8.50;99.80
36990;DHT22;22898;52.102;5.776;2023-03-08T08:51:08;8.40;99.90
36990;DHT22;22898;52.102;5.776;2023-03-08T08:53:35;8.70;99.90
36990;DHT22;22898;52.102;5.776;2023-03-08T08:56:18;8.90;99.80
36990;DHT22;22898;52.102;5.776;2023-03-08T08:58:44;9.30;99.10
36990;DHT22;22898;52.102;5.776;2023-03-08T09:01:14;9.00;99.60
36990;DHT22;22898;52.102;5.776;2023-03-08T09:03:41;9.00;99.30
36990;DHT22;22898;52.102;5.776;2023-03-08T09:06:07;8.90;99.20
36990;DHT22;22898;52.102;5.776;2023-03-08T09:08:34;8.90;99.40
36990;DHT22;22898;52.102;5.776;2023-03-08T09:11:07;8.80;99.80
36990;DHT22;22898;52.102;5.776;2023-03-08T09:13:34;9.10;99.20
36990;DHT22;22898;52.102;5.776;2023-03-08T09:15:59;9.10;99.30
36990;DHT22;22898;52.102;5.776;2023-03-08T09:18:27;9.20;99.40
36990;DHT22;22898;52.102;5.776;2023-03-08T09:20:53;9.60;98.80
36990;DHT22;22898;52.102;5.776;2023-03-08T09:23:19;9.90;98.00
36990;DHT22;22898;52.102;5.776;2023-03-08T09:25:45;10.00;97.70
36990;DHT22;22898;52.102;5.776;2023-03-08T09:28:11;10.00;98.00
36990;DHT22;22898;52.102;5.776;2023-03-08T09:30:37;10.10;97.80
36990;DHT22;22898;52.102;5.776;2023-03-08T09:33:02;10.30;97.70
36990;DHT22;22898;52.102;5.776;2023-03-08T09:35:28;10.40;97.00
36990;DHT22;22898;52.102;5.776;2023-03-08T09:37:54;10.40;97.20
36990;DHT22;22898;52.102;5.776;2023-03-08T09:40:25;10.20;97.20
36990;DHT22;22898;52.102;5.776;2023-03-08T09:42:52;10.20;97.40
36990;DHT22;22898;52.102;5.776;2023-03-08T09:45:26;9.90;97.30
36990;DHT22;22898;52.102;5.776;2023-03-08T09:48:05;9.90;98.00
36990;DHT22;22898;52.102;5.776;2023-03-08T09:50:43;9.90;97.30
36990;DHT22;22898;52.102;5.776;2023-03-08T09:53:23;9.70;98.00
36990;DHT22;22898;52.102;5.776;2023-03-08T09:55:59;9.90;97.80
36990;DHT22;22898;52.102;5.776;2023-03-08T10:01:35;9.60;98.00
36990;DHT22;22898;52.102;5.776;2023-03-08T10:04:27;9.10;98.70
36990;DHT22;22898;52.102;5.776;2023-03-08T10:15:38;8.60;99.90
36990;DHT22;22898;52.102;5.776;2023-03-08T10:20:37;8.60;99.90
36990;DHT22;22898;52.102;5.776;2023-03-08T10:23:21;8.70;99.90
36990;DHT22;22898;52.102;5.776;2023-03-08T10:25:49;9.00;99.60
36990;DHT22;22898;52.102;5.776;2023-03-08T10:28:17;9.20;99.10
36990;DHT22;22898;52.102;5.776;2023-03-08T10:30:55;9.10;99.50
36990;DHT22;22898;52.102;5.776;2023-03-08T10:33:23;9.10;99.90
36990;DHT22;22898;52.102;5.776;2023-03-08T10:38:21;9.30;99.70
36990;DHT22;22898;52.102;5.776;2023-03-08T10:40:57;9.30;99.10
36990;DHT22;22898;52.102;5.776;2023-03-08T10:43:44;9.50;99.40
36990;DHT22;22898;52.102;5.776;2023-03-08T10:46:16;9.70;98.50
36990;DHT22;22898;52.102;5.776;2023-03-08T10:48:44;9.70;99.10
36990;DHT22;22898;52.102;5.776;2023-03-08T10:51:27;9.10;99.50
36990;DHT22;22898;52.102;5.776;2023-03-08T10:53:56;8.90;99.90
36990;DHT22;22898;52.102;5.776;2023-03-08T10:56:35;9.10;99.40
36990;DHT22;22898;52.102;5.776;2023-03-08T10:59:02;9.10;99.90
36990;DHT22;22898;52.102;5.776;2023-03-08T11:01:33;8.90;99.20
36990;DHT22;22898;52.102;5.776;2023-03-08T11:04:00;8.70;99.80
36990;DHT22;22898;52.102;5.776;2023-03-08T11:06:27;8.60;99.90
36990;DHT22;22898;52.102;5.776;2023-03-08T11:08:55;8.40;99.90
36990;DHT22;22898;52.102;5.776;2023-03-08T11:11:21;8.50;99.90
36990;DHT22;22898;52.102;5.776;2023-03-08T11:13:49;8.20;99.90
36990;DHT22;22898;52.102;5.776;2023-03-08T11:21:50;8.50;99.90
36990;DHT22;22898;52.102;5.776;2023-03-08T11:36:00;10.20;99.20
36990;DHT22;22898;52.102;5.776;2023-03-08T11:38:31;10.40;99.30
36990;DHT22;22898;52.102;5.776;2023-03-08T11:41:18;10.60;98.30
36990;DHT22;22898;52.102;5.776;2023-03-08T11:44:11;10.70;98.30
36990;DHT22;22898;52.102;5.776;2023-03-08T11:50:05;10.60;98.50
36990;DHT22;22898;52.102;5.776;2023-03-08T11:53:08;10.40;97.80
36990;DHT22;22898;52.102;5.776;2023-03-08T11:58:46;10.00;98.50
36990;DHT22;22898;52.102;5.776;2023-03-08T12:01:34;10.20;98.50
36990;DHT22;22898;52.102;5.776;2023-03-08T12:04:09;9.80;98.60
36990;DHT22;22898;52.102;5.776;2023-03-08T12:06:43;9.70;98.80
36990;DHT22;22898;52.102;5.776;2023-03-08T12:09:27;9.70;98.60
36990;DHT22;22898;52.102;5.776;2023-03-08T12:12:24;9.70;98.30
36990;DHT22;22898;52.102;5.776;2023-03-08T12:14:55;10.00;98.70
36990;DHT22;22898;52.102;5.776;2023-03-08T12:17:35;10.10;99.70
36990;DHT22;22898;52.102;5.776;2023-03-08T12:20:05;10.40;97.70
36990;DHT22;22898;52.102;5.776;2023-03-08T12:22:42;10.20;98.10
36990;DHT22;22898;52.102;5.776;2023-03-08T12:25:28;9.70;98.80
36990;DHT22;22898;52.102;5.776;2023-03-08T12:28:03;9.70;99.10
36990;DHT22;22898;52.102;5.776;2023-03-08T12:33:02;9.50;99.20
36990;DHT22;22898;52.102;5.776;2023-03-08T12:35:34;9.50;99.20
36990;DHT22;22898;52.102;5.776;2023-03-08T12:38:30;9.80;98.90
36990;DHT22;22898;52.102;5.776;2023-03-08T12:40:56;9.90;97.70
36990;DHT22;22898;52.102;5.776;2023-03-08T12:46:06;9.30;99.40
36990;DHT22;22898;52.102;5.776;2023-03-08T12:48:47;9.60;99.30
36990;DHT22;22898;52.102;5.776;2023-03-08T12:51:30;9.90;98.70
36990;DHT22;22898;52.102;5.776;2023-03-08T12:54:00;9.80;98.90
36990;DHT22;22898;52.102;5.776;2023-03-08T12:56:34;9.60;99.50
36990;DHT22;22898;52.102;5.776;2023-03-08T13:01:36;9.70;99.90
36990;DHT22;22898;52.102;5.776;2023-03-08T13:13:04;10.40;98.20
36990;DHT22;22898;52.102;5.776;2023-03-08T13:15:20;10.30;98.40
36990;DHT22;22898;52.102;5.776;2023-03-08T13:17:52;9.40;99.10
36990;DHT22;22898;52.102;5.776;2023-03-08T13:23:20;9.40;99.50
36990;DHT22;22898;52.102;5.776;2023-03-08T13:28:19;9.40;99.20
36990;DHT22;22898;52.102;5.776;2023-03-08T13:30:57;9.70;99.10
36990;DHT22;22898;52.102;5.776;2023-03-08T13:33:26;9.90;98.50
36990;DHT22;22898;52.102;5.776;2023-03-08T13:35:59;9.70;99.20
36990;DHT22;22898;52.102;5.776;2023-03-08T13:38:32;9.80;98.30
36990;DHT22;22898;52.102;5.776;2023-03-08T13:40:58;9.80;97.30
36990;DHT22;22898;52.102;5.776;2023-03-08T13:43:29;9.80;98.30
36990;DHT22;22898;52.102;5.776;2023-03-08T13:46:01;9.80;97.90
36990;DHT22;22898;52.102;5.776;2023-03-08T13:48:32;9.70;99.00
36990;DHT22;22898;52.102;5.776;2023-03-08T13:51:01;9.90;97.40
36990;DHT22;22898;52.102;5.776;2023-03-08T13:53:30;10.20;97.60
36990;DHT22;22898;52.102;5.776;2023-03-08T13:55:59;10.10;97.80
36990;DHT22;22898;52.102;5.776;2023-03-08T13:58:37;9.90;96.40
36990;DHT22;22898;52.102;5.776;2023-03-08T14:01:15;9.70;98.10
36990;DHT22;22898;52.102;5.776;2023-03-08T14:03:43;9.80;98.50
36990;DHT22;22898;52.102;5.776;2023-03-08T14:06:20;10.20;97.20
36990;DHT22;22898;52.102;5.776;2023-03-08T14:08:47;10.20;96.60
36990;DHT22;22898;52.102;5.776;2023-03-08T14:11:24;10.10;96.60
36990;DHT22;22898;52.102;5.776;2023-03-08T14:13:54;10.10;97.00
36990;DHT22;22898;52.102;5.776;2023-03-08T14:16:36;10.30;97.40
36990;DHT22;22898;52.102;5.776;2023-03-08T14:19:11;10.70;96.90
36990;DHT22;22898;52.102;5.776;2023-03-08T14:21:49;10.90;96.00
36990;DHT22;22898;52.102;5.776;2023-03-08T14:24:23;10.60;96.40
36990;DHT22;22898;52.102;5.776;2023-03-08T14:27:04;10.80;96.70
36990;DHT22;22898;52.102;5.776;2023-03-08T14:29:33;10.50;96.80
36990;DHT22;22898;52.102;5.776;2023-03-08T14:32:03;10.50;96.20
36990;DHT22;22898;52.102;5.776;2023-03-08T14:37:22;9.60;96.50
36990;DHT22;22898;52.102;5.776;2023-03-08T14:39:49;9.90;97.40
36990;DHT22;22898;52.102;5.776;2023-03-08T14:42:46;9.60;98.00
36990;DHT22;22898;52.102;5.776;2023-03-08T14:45:31;10.10;97.20
36990;DHT22;22898;52.102;5.776;2023-03-08T14:48:33;10.20;96.60
36990;DHT22;22898;52.102;5.776;2023-03-08T14:53:34;10.10;97.80
36990;DHT22;22898;52.102;5.776;2023-03-08T14:56:04;10.20;97.00
36990;DHT22;22898;52.102;5.776;2023-03-08T14:58:32;10.50;96.80
36990;DHT22;22898;52.102;5.776;2023-03-08T15:01:00;10.20;96.90
36990;DHT22;22898;52.102;5.776;2023-03-08T15:03:28;10.30;97.00
36990;DHT22;22898;52.102;5.776;2023-03-08T15:05:54;10.10;97.20
36990;DHT22;22898;52.102;5.776;2023-03-08T15:08:23;10.20;96.90
36990;DHT22;22898;52.102;5.776;2023-03-08T15:10:51;10.30;96.90
36990;DHT22;22898;52.102;5.776;2023-03-08T15:13:19;10.50;96.80
36990;DHT22;22898;52.102;5.776;2023-03-08T15:15:46;10.60;97.00
36990;DHT22;22898;52.102;5.776;2023-03-08T15:18:13;10.80;97.20
36990;DHT22;22898;52.102;5.776;2023-03-08T15:20:43;10.90;96.80
36990;DHT22;22898;52.102;5.776;2023-03-08T15:23:16;10.80;96.60
36990;DHT22;22898;52.102;5.776;2023-03-08T15:25:43;10.60;97.40
36990;DHT22;22898;52.102;5.776;2023-03-08T15:28:14;10.50;96.90
36990;DHT22;22898;52.102;5.776;2023-03-08T15:30:40;10.10;97.30
36990;DHT22;22898;52.102;5.776;2023-03-08T15:33:05;9.90;98.00
36990;DHT22;22898;52.102;5.776;2023-03-08T15:35:31;9.50;98.50
36990;DHT22;22898;52.102;5.776;2023-03-08T15:37:57;9.70;98.80
36990;DHT22;22898;52.102;5.776;2023-03-08T15:40:24;9.90;98.40
36990;DHT22;22898;52.102;5.776;2023-03-08T15:42:50;9.80;98.30
36990;DHT22;22898;52.102;5.776;2023-03-08T15:45:16;9.60;98.70
36990;DHT22;22898;52.102;5.776;2023-03-08T15:47:42;9.50;99.30
36990;DHT22;22898;52.102;5.776;2023-03-08T15:50:16;9.90;98.80
36990;DHT22;22898;52.102;5.776;2023-03-08T15:52:42;10.20;98.50
36990;DHT22;22898;52.102;5.776;2023-03-08T15:55:11;10.40;97.90
36990;DHT22;22898;52.102;5.776;2023-03-08T15:57:39;10.50;97.70
36990;DHT22;22898;52.102;5.776;2023-03-08T16:00:07;10.70;97.60
36990;DHT22;22898;52.102;5.776;2023-03-08T16:02:35;10.70;97.50
36990;DHT22;22898;52.102;5.776;2023-03-08T16:05:03;10.70;97.50
36990;DHT22;22898;52.102;5.776;2023-03-08T16:07:29;10.60;97.50
36990;DHT22;22898;52.102;5.776;2023-03-08T16:09:55;10.40;97.80
36990;DHT22;22898;52.102;5.776;2023-03-08T16:12:20;10.40;97.50
36990;DHT22;22898;52.102;5.776;2023-03-08T16:14:49;10.20;98.10
36990;DHT22;22898;52.102;5.776;2023-03-08T16:17:16;10.20;98.00
36990;DHT22;22898;52.102;5.776;2023-03-08T16:19:42;10.40;98.20
36990;DHT22;22898;52.102;5.776;2023-03-08T16:22:08;10.20;98.00
36990;DHT22;22898;52.102;5.776;2023-03-08T16:24:34;10.10;98.20
36990;DHT22;22898;52.102;5.776;2023-03-08T16:27:00;10.20;98.00
36990;DHT22;22898;52.102;5.776;2023-03-08T16:29:30;9.90;99.00
36990;DHT22;22898;52.102;5.776;2023-03-08T16:31:58;9.90;99.00
36990;DHT22;22898;52.102;5.776;2023-03-08T16:34:24;10.20;98.40
36990;DHT22;22898;52.102;5.776;2023-03-08T16:36:51;10.20;98.20
36990;DHT22;22898;52.102;5.776;2023-03-08T16:39:17;10.00;98.60
36990;DHT22;22898;52.102;5.776;2023-03-08T16:41:43;10.10;98.20
36990;DHT22;22898;52.102;5.776;2023-03-08T16:44:18;10.40;97.90
36990;DHT22;22898;52.102;5.776;2023-03-08T16:46:45;10.40;98.20
36990;DHT22;22898;52.102;5.776;2023-03-08T16:49:11;10.60;98.20
36990;DHT22;22898;52.102;5.776;2023-03-08T16:51:38;10.50;98.00
36990;DHT22;22898;52.102;5.776;2023-03-08T16:54:05;10.60;97.70
36990;DHT22;22898;52.102;5.776;2023-03-08T16:56:31;10.60;98.00
36990;DHT22;22898;52.102;5.776;2023-03-08T16:58:58;10.70;97.80
36990;DHT22;22898;52.102;5.776;2023-03-08T17:01:24;10.80;97.90
36990;DHT22;22898;52.102;5.776;2023-03-08T17:03:51;10.80;97.60
36990;DHT22;22898;52.102;5.776;2023-03-08T17:06:22;11.00;97.40